AFL1503 USTR-UUEE
Flight info
| Callsign | AFL1503 |
|---|---|
| Flight time | 2h 39m |
| Altitude | 36000 |
| Route | BEPAR2T BEPAR T448 BANAM T348 EKB M864 AGNOK T796 ORTIM L158 DIMGI DIMGI3W |
| Aircraft | A320/M-SDE3FGHIRWY/LB1 |
Departure
| Time | 2026-05-05 10:50 |
|---|---|
| Airport | Roshchino International Airport (USTR) |
Arrival
| Time | 2026-05-05 13:30 |
|---|---|
| Airport | Sheremetyevo International Airport (UUEE) |
| Time | Latitude | Longitude | Altitude | Speed | Heading |
|---|---|---|---|---|---|
| 2026-05-05 10:17 | 57.18135 | 65.34695 | 341 ft | 0 kts | 54° |
| 2026-05-05 10:42 | 57.18123 | 65.34664 | 335 ft | 4 kts | 56° |
| 2026-05-05 10:42 | 57.18109 | 65.34622 | 337 ft | 4 kts | 63° |
| 2026-05-05 10:42 | 57.18100 | 65.34577 | 338 ft | 4 kts | 93° |
| 2026-05-05 10:43 | 57.18104 | 65.34551 | 336 ft | 0 kts | 135° |
| 2026-05-05 10:46 | 57.18098 | 65.34562 | 338 ft | 3 kts | 135° |
| 2026-05-05 10:47 | 57.18065 | 65.34623 | 336 ft | 10 kts | 135° |
| 2026-05-05 10:47 | 57.17997 | 65.34749 | 339 ft | 18 kts | 135° |
| 2026-05-05 10:47 | 57.17894 | 65.34939 | 340 ft | 23 kts | 134° |
| 2026-05-05 10:47 | 57.17776 | 65.35161 | 335 ft | 25 kts | 134° |
| 2026-05-05 10:48 | 57.17664 | 65.35373 | 340 ft | 24 kts | 135° |
| 2026-05-05 10:48 | 57.17545 | 65.35596 | 339 ft | 20 kts | 133° |
| 2026-05-05 10:48 | 57.17434 | 65.35704 | 338 ft | 18 kts | 177° |
| 2026-05-05 10:48 | 57.17335 | 65.35636 | 337 ft | 15 kts | 230° |
| 2026-05-05 10:49 | 57.17316 | 65.35463 | 339 ft | 16 kts | 311° |
| 2026-05-05 10:49 | 57.17349 | 65.35401 | 353 ft | 0 kts | 316° |
| 2026-05-05 10:49 | 57.17421 | 65.35272 | 344 ft | 48 kts | 315° |
| 2026-05-05 10:49 | 57.17828 | 65.34508 | 338 ft | 116 kts | 315° |
| 2026-05-05 10:50 | 57.18535 | 65.33215 | 362 ft | 166 kts | 316° |
| 2026-05-05 10:50 | 57.19366 | 65.31728 | 951 ft | 167 kts | 315° |
| 2026-05-05 10:50 | 57.20190 | 65.30189 | 1645 ft | 169 kts | 314° |
| 2026-05-05 10:50 | 57.21026 | 65.28546 | 2067 ft | 185 kts | 313° |
| 2026-05-05 10:51 | 57.21950 | 65.26723 | 2396 ft | 205 kts | 315° |
| 2026-05-05 10:51 | 57.22846 | 65.24516 | 2713 ft | 229 kts | 290° |
| 2026-05-05 10:51 | 57.23011 | 65.21502 | 3088 ft | 254 kts | 267° |
| 2026-05-05 10:51 | 57.22735 | 65.18183 | 3751 ft | 267 kts | 260° |
| 2026-05-05 10:52 | 57.22322 | 65.14799 | 4641 ft | 272 kts | 259° |
| 2026-05-05 10:52 | 57.21897 | 65.11367 | 5514 ft | 277 kts | 260° |
| 2026-05-05 10:52 | 57.21500 | 65.07866 | 6373 ft | 281 kts | 261° |
| 2026-05-05 10:52 | 57.21136 | 65.04298 | 7219 ft | 284 kts | 262° |
| 2026-05-05 10:53 | 57.20800 | 65.00693 | 8080 ft | 287 kts | 263° |
| 2026-05-05 10:53 | 57.20478 | 64.97035 | 8916 ft | 291 kts | 263° |
| 2026-05-05 10:53 | 57.20160 | 64.93335 | 9751 ft | 294 kts | 263° |
| 2026-05-05 10:53 | 57.19839 | 64.89557 | 10335 ft | 306 kts | 263° |
| 2026-05-05 10:54 | 57.19501 | 64.85531 | 10593 ft | 329 kts | 263° |
| 2026-05-05 10:54 | 57.19126 | 64.81282 | 11119 ft | 340 kts | 259° |
| 2026-05-05 10:54 | 57.18547 | 64.77021 | 11823 ft | 344 kts | 257° |
| 2026-05-05 10:54 | 57.17949 | 64.72723 | 12550 ft | 348 kts | 257° |
| 2026-05-05 10:55 | 57.17342 | 64.68371 | 13289 ft | 352 kts | 257° |
| 2026-05-05 10:55 | 57.16731 | 64.63979 | 13959 ft | 355 kts | 257° |
| 2026-05-05 10:55 | 57.16109 | 64.59543 | 14588 ft | 359 kts | 258° |
| 2026-05-05 10:55 | 57.15480 | 64.55069 | 15206 ft | 363 kts | 258° |
| 2026-05-05 10:56 | 57.14854 | 64.50541 | 15809 ft | 367 kts | 260° |
| 2026-05-05 10:56 | 57.14533 | 64.45887 | 16387 ft | 368 kts | 270° |
| 2026-05-05 10:56 | 57.14395 | 64.41159 | 16996 ft | 372 kts | 270° |
| 2026-05-05 10:56 | 57.14252 | 64.36378 | 17581 ft | 375 kts | 270° |
| 2026-05-05 10:57 | 57.14108 | 64.31634 | 18162 ft | 379 kts | 270° |
| 2026-05-05 10:57 | 57.13957 | 64.26776 | 18676 ft | 381 kts | 270° |
| 2026-05-05 10:57 | 57.13800 | 64.21882 | 19234 ft | 383 kts | 269° |
| 2026-05-05 10:57 | 57.13640 | 64.16972 | 19799 ft | 385 kts | 269° |
| 2026-05-05 10:58 | 57.13478 | 64.12037 | 20362 ft | 387 kts | 269° |
| 2026-05-05 10:58 | 57.13314 | 64.07089 | 20921 ft | 389 kts | 269° |
| 2026-05-05 10:58 | 57.13143 | 64.02111 | 21473 ft | 391 kts | 268° |
| 2026-05-05 10:58 | 57.12966 | 63.97101 | 22051 ft | 393 kts | 268° |
| 2026-05-05 10:59 | 57.12790 | 63.92083 | 22589 ft | 395 kts | 268° |
| 2026-05-05 10:59 | 57.12612 | 63.87022 | 23126 ft | 397 kts | 268° |
| 2026-05-05 10:59 | 57.12432 | 63.81948 | 23616 ft | 399 kts | 268° |
| 2026-05-05 10:59 | 57.12246 | 63.76839 | 23988 ft | 402 kts | 265° |
| 2026-05-05 11:00 | 57.11792 | 63.71734 | 24362 ft | 406 kts | 259° |
| 2026-05-05 11:00 | 57.11201 | 63.66632 | 24744 ft | 409 kts | 259° |
| 2026-05-05 11:00 | 57.10604 | 63.61491 | 25065 ft | 413 kts | 259° |
| 2026-05-05 11:00 | 57.09997 | 63.56291 | 25431 ft | 416 kts | 259° |
| 2026-05-05 11:01 | 57.09388 | 63.51085 | 25801 ft | 418 kts | 259° |
| 2026-05-05 11:01 | 57.08772 | 63.45850 | 26176 ft | 420 kts | 259° |
| 2026-05-05 11:01 | 57.08152 | 63.40589 | 26533 ft | 422 kts | 259° |
| 2026-05-05 11:01 | 57.07532 | 63.35367 | 26890 ft | 424 kts | 259° |
| 2026-05-05 11:02 | 57.06897 | 63.30056 | 27264 ft | 426 kts | 258° |
| 2026-05-05 11:02 | 57.06258 | 63.24723 | 27600 ft | 428 kts | 258° |
| 2026-05-05 11:02 | 57.05614 | 63.19361 | 27947 ft | 430 kts | 258° |
| 2026-05-05 11:02 | 57.04969 | 63.13992 | 28289 ft | 432 kts | 258° |
| 2026-05-05 11:03 | 57.04319 | 63.08595 | 28605 ft | 434 kts | 259° |
| 2026-05-05 11:03 | 57.03662 | 63.03166 | 28926 ft | 436 kts | 259° |
| 2026-05-05 11:03 | 57.02999 | 62.97711 | 29246 ft | 438 kts | 259° |
| 2026-05-05 11:03 | 57.02333 | 62.92254 | 29581 ft | 440 kts | 259° |
| 2026-05-05 11:04 | 57.01661 | 62.86771 | 29865 ft | 441 kts | 259° |
| 2026-05-05 11:04 | 57.01213 | 62.83128 | 30040 ft | 442 kts | 259° |
| 2026-05-05 11:04 | 57.00306 | 62.75745 | 30372 ft | 444 kts | 259° |
| 2026-05-05 11:04 | 56.99854 | 62.72076 | 30535 ft | 445 kts | 258° |
| 2026-05-05 11:05 | 56.99167 | 62.66535 | 30779 ft | 446 kts | 258° |
| 2026-05-05 11:05 | 56.98472 | 62.60983 | 31021 ft | 447 kts | 258° |
| 2026-05-05 11:05 | 56.97537 | 62.53565 | 31441 ft | 445 kts | 258° |
| 2026-05-05 11:05 | 56.97074 | 62.49913 | 31651 ft | 444 kts | 258° |
| 2026-05-05 11:06 | 56.96376 | 62.44417 | 32026 ft | 441 kts | 258° |
| 2026-05-05 11:06 | 56.95682 | 62.38954 | 32390 ft | 439 kts | 258° |
| 2026-05-05 11:06 | 56.94991 | 62.33507 | 32734 ft | 438 kts | 258° |
| 2026-05-05 11:06 | 56.94303 | 62.28085 | 33069 ft | 436 kts | 258° |
| 2026-05-05 11:07 | 56.93613 | 62.22668 | 33392 ft | 435 kts | 258° |
| 2026-05-05 11:07 | 56.92924 | 62.17291 | 33726 ft | 434 kts | 258° |
| 2026-05-05 11:07 | 56.92232 | 62.11926 | 34020 ft | 433 kts | 258° |
| 2026-05-05 11:07 | 56.91537 | 62.06568 | 34282 ft | 432 kts | 257° |
| 2026-05-05 11:08 | 56.90840 | 62.01224 | 34528 ft | 431 kts | 257° |
| 2026-05-05 11:08 | 56.90139 | 61.95892 | 34768 ft | 431 kts | 257° |
| 2026-05-05 11:08 | 56.89438 | 61.90574 | 34984 ft | 430 kts | 257° |
| 2026-05-05 11:08 | 56.88745 | 61.85333 | 35198 ft | 430 kts | 257° |
| 2026-05-05 11:09 | 56.88043 | 61.80027 | 35416 ft | 429 kts | 257° |
| 2026-05-05 11:09 | 56.87341 | 61.74735 | 35634 ft | 429 kts | 257° |
| 2026-05-05 11:09 | 56.86637 | 61.69429 | 35819 ft | 429 kts | 257° |
| 2026-05-05 11:10 | 56.85228 | 61.58888 | 35876 ft | 424 kts | 257° |
| 2026-05-05 11:10 | 56.83824 | 61.48434 | 35888 ft | 423 kts | 257° |
| 2026-05-05 11:11 | 56.82407 | 61.38010 | 35888 ft | 423 kts | 257° |
| 2026-05-05 11:11 | 56.80982 | 61.27571 | 35881 ft | 424 kts | 257° |
| 2026-05-05 11:12 | 56.79554 | 61.17145 | 35883 ft | 424 kts | 257° |
| 2026-05-05 11:12 | 56.78108 | 61.06714 | 35887 ft | 424 kts | 257° |
| 2026-05-05 11:13 | 56.76653 | 60.96274 | 35883 ft | 425 kts | 257° |
| 2026-05-05 11:13 | 56.75190 | 60.85813 | 35895 ft | 426 kts | 257° |
| 2026-05-05 11:14 | 56.74661 | 60.75221 | 35872 ft | 422 kts | 276° |
| 2026-05-05 11:14 | 56.75406 | 60.64599 | 35870 ft | 423 kts | 278° |
| 2026-05-05 11:15 | 56.76151 | 60.53963 | 35872 ft | 424 kts | 278° |
| 2026-05-05 11:15 | 56.76879 | 60.43306 | 35882 ft | 424 kts | 278° |
| 2026-05-05 11:16 | 56.77607 | 60.32633 | 35869 ft | 424 kts | 278° |
| 2026-05-05 11:16 | 56.78327 | 60.21959 | 35869 ft | 424 kts | 277° |
| 2026-05-05 11:17 | 56.79032 | 60.11278 | 35875 ft | 424 kts | 277° |
| 2026-05-05 11:17 | 56.79700 | 60.00574 | 35871 ft | 425 kts | 277° |
| 2026-05-05 11:18 | 56.80342 | 59.89864 | 35877 ft | 425 kts | 277° |
| 2026-05-05 11:18 | 56.80967 | 59.79140 | 35874 ft | 425 kts | 277° |
| 2026-05-05 11:19 | 56.81590 | 59.68420 | 35875 ft | 425 kts | 277° |
| 2026-05-05 11:19 | 56.82208 | 59.57693 | 35879 ft | 425 kts | 277° |
| 2026-05-05 11:20 | 56.82821 | 59.46966 | 35880 ft | 425 kts | 277° |
| 2026-05-05 11:20 | 56.83429 | 59.36234 | 35878 ft | 425 kts | 277° |
| 2026-05-05 11:21 | 56.84018 | 59.25504 | 35859 ft | 425 kts | 277° |
| 2026-05-05 11:21 | 56.84592 | 59.14841 | 35864 ft | 425 kts | 277° |
| 2026-05-05 11:22 | 56.85130 | 59.04086 | 35866 ft | 425 kts | 275° |
| 2026-05-05 11:22 | 56.85395 | 58.93288 | 35873 ft | 425 kts | 273° |
| 2026-05-05 11:23 | 56.85510 | 58.82484 | 35881 ft | 425 kts | 273° |
| 2026-05-05 11:23 | 56.85651 | 58.71677 | 35882 ft | 425 kts | 273° |
| 2026-05-05 11:24 | 56.85821 | 58.60880 | 35884 ft | 425 kts | 273° |
| 2026-05-05 11:24 | 56.85996 | 58.50095 | 35881 ft | 425 kts | 274° |
| 2026-05-05 11:25 | 56.86160 | 58.39309 | 35880 ft | 425 kts | 273° |
| 2026-05-05 11:25 | 56.86306 | 58.28519 | 35881 ft | 425 kts | 273° |
| 2026-05-05 11:26 | 56.86445 | 58.17734 | 35879 ft | 425 kts | 273° |
| 2026-05-05 11:26 | 56.86569 | 58.06947 | 35878 ft | 425 kts | 273° |
| 2026-05-05 11:27 | 56.86684 | 57.96209 | 35877 ft | 424 kts | 273° |
| 2026-05-05 11:27 | 56.86792 | 57.85433 | 35881 ft | 423 kts | 273° |
| 2026-05-05 11:28 | 56.86888 | 57.74685 | 35885 ft | 423 kts | 272° |
| 2026-05-05 11:28 | 56.86985 | 57.63957 | 35886 ft | 422 kts | 272° |
| 2026-05-05 11:29 | 56.87069 | 57.53224 | 35888 ft | 422 kts | 272° |
| 2026-05-05 11:29 | 56.87136 | 57.42498 | 35884 ft | 421 kts | 272° |
| 2026-05-05 11:30 | 56.87194 | 57.31793 | 35881 ft | 421 kts | 272° |
| 2026-05-05 11:30 | 56.87251 | 57.21093 | 35863 ft | 421 kts | 272° |
| 2026-05-05 11:31 | 56.87301 | 57.10399 | 35875 ft | 420 kts | 272° |
| 2026-05-05 11:31 | 56.87334 | 56.99708 | 35869 ft | 420 kts | 272° |
| 2026-05-05 11:32 | 56.87363 | 56.89013 | 35870 ft | 420 kts | 272° |
| 2026-05-05 11:32 | 56.87380 | 56.78382 | 35882 ft | 420 kts | 271° |
| 2026-05-05 11:33 | 56.87384 | 56.67714 | 35882 ft | 419 kts | 271° |
| 2026-05-05 11:33 | 56.87376 | 56.57057 | 35882 ft | 419 kts | 271° |
| 2026-05-05 11:34 | 56.87363 | 56.46407 | 35867 ft | 419 kts | 271° |
| 2026-05-05 11:34 | 56.87410 | 56.35769 | 35869 ft | 418 kts | 272° |
| 2026-05-05 11:35 | 56.87549 | 56.25157 | 35873 ft | 418 kts | 272° |
| 2026-05-05 11:35 | 56.87672 | 56.14534 | 35872 ft | 417 kts | 272° |
| 2026-05-05 11:36 | 56.87756 | 56.03918 | 35866 ft | 418 kts | 272° |
| 2026-05-05 11:36 | 56.87687 | 55.93293 | 35867 ft | 419 kts | 264° |
| 2026-05-05 11:37 | 56.86095 | 55.83104 | 35852 ft | 422 kts | 249° |
| 2026-05-05 11:37 | 56.83816 | 55.73215 | 35851 ft | 422 kts | 249° |
| 2026-05-05 11:38 | 56.81538 | 55.63326 | 35869 ft | 422 kts | 249° |
| 2026-05-05 11:38 | 56.79262 | 55.53464 | 35871 ft | 421 kts | 249° |
| 2026-05-05 11:39 | 56.76981 | 55.43623 | 35873 ft | 421 kts | 249° |
| 2026-05-05 11:39 | 56.74688 | 55.33801 | 35873 ft | 421 kts | 249° |
| 2026-05-05 11:40 | 56.72403 | 55.24068 | 35865 ft | 420 kts | 249° |
| 2026-05-05 11:40 | 56.70095 | 55.14291 | 35867 ft | 420 kts | 249° |
| 2026-05-05 11:41 | 56.67786 | 55.04530 | 35868 ft | 420 kts | 249° |
| 2026-05-05 11:41 | 56.65468 | 54.94769 | 35860 ft | 420 kts | 248° |
| 2026-05-05 11:42 | 56.63145 | 54.85035 | 35857 ft | 420 kts | 248° |
| 2026-05-05 11:42 | 56.60808 | 54.75311 | 35849 ft | 420 kts | 248° |
| 2026-05-05 11:43 | 56.58460 | 54.65598 | 35856 ft | 420 kts | 248° |
| 2026-05-05 11:43 | 56.56121 | 54.55895 | 35859 ft | 420 kts | 248° |
| 2026-05-05 11:44 | 56.53767 | 54.46207 | 35857 ft | 420 kts | 248° |
| 2026-05-05 11:44 | 56.51400 | 54.36537 | 35858 ft | 420 kts | 248° |
| 2026-05-05 11:45 | 56.49040 | 54.26926 | 35853 ft | 420 kts | 248° |
| 2026-05-05 11:45 | 56.46651 | 54.17268 | 35851 ft | 420 kts | 248° |
| 2026-05-05 11:46 | 56.44257 | 54.07619 | 35856 ft | 421 kts | 247° |
| 2026-05-05 11:46 | 56.42076 | 53.98887 | 35864 ft | 421 kts | 247° |
| 2026-05-05 11:47 | 56.39671 | 53.89258 | 35869 ft | 421 kts | 248° |
| 2026-05-05 11:47 | 56.37277 | 53.79630 | 35872 ft | 420 kts | 248° |
| 2026-05-05 11:48 | 56.33660 | 53.65217 | 35866 ft | 420 kts | 247° |
| 2026-05-05 11:48 | 56.31223 | 53.55634 | 35869 ft | 421 kts | 247° |
| 2026-05-05 11:49 | 56.28771 | 53.46130 | 35870 ft | 421 kts | 246° |
| 2026-05-05 11:49 | 56.26298 | 53.36596 | 35871 ft | 420 kts | 246° |
| 2026-05-05 11:50 | 56.23823 | 53.27070 | 35869 ft | 420 kts | 246° |
| 2026-05-05 11:50 | 56.21344 | 53.17559 | 35862 ft | 420 kts | 246° |
| 2026-05-05 11:51 | 56.18864 | 53.08074 | 35867 ft | 419 kts | 246° |
| 2026-05-05 11:51 | 56.16368 | 52.98610 | 35866 ft | 419 kts | 246° |
| 2026-05-05 11:52 | 56.14291 | 52.90761 | 35863 ft | 419 kts | 246° |
| 2026-05-05 11:52 | 56.11784 | 52.81336 | 35869 ft | 419 kts | 246° |
| 2026-05-05 11:53 | 56.09280 | 52.71909 | 35870 ft | 419 kts | 246° |
| 2026-05-05 11:53 | 56.06766 | 52.62499 | 35876 ft | 419 kts | 246° |
| 2026-05-05 11:54 | 56.04254 | 52.53093 | 35874 ft | 419 kts | 246° |
| 2026-05-05 11:54 | 56.01747 | 52.43677 | 35883 ft | 419 kts | 246° |
| 2026-05-05 11:55 | 55.99233 | 52.34280 | 35884 ft | 419 kts | 246° |
| 2026-05-05 11:55 | 55.96708 | 52.24892 | 35882 ft | 419 kts | 246° |
| 2026-05-05 11:56 | 55.94174 | 52.15520 | 35890 ft | 419 kts | 246° |
| 2026-05-05 11:56 | 55.91630 | 52.06163 | 35895 ft | 419 kts | 246° |
| 2026-05-05 11:57 | 55.89084 | 51.96815 | 35897 ft | 419 kts | 246° |
| 2026-05-05 11:57 | 55.86533 | 51.87471 | 35900 ft | 419 kts | 245° |
| 2026-05-05 11:58 | 55.83973 | 51.78139 | 35906 ft | 419 kts | 245° |
| 2026-05-05 11:58 | 55.81409 | 51.68838 | 35894 ft | 419 kts | 245° |
| 2026-05-05 11:59 | 55.78847 | 51.59606 | 35897 ft | 419 kts | 245° |
| 2026-05-05 11:59 | 55.76268 | 51.50341 | 35899 ft | 419 kts | 245° |
| 2026-05-05 12:00 | 55.73684 | 51.41080 | 35900 ft | 418 kts | 245° |
| 2026-05-05 12:00 | 55.71275 | 51.31699 | 35901 ft | 418 kts | 249° |
| 2026-05-05 12:01 | 55.69099 | 51.22145 | 35897 ft | 418 kts | 250° |
| 2026-05-05 12:01 | 55.66927 | 51.12608 | 35901 ft | 418 kts | 249° |
| 2026-05-05 12:02 | 55.64689 | 51.03116 | 35900 ft | 418 kts | 248° |
| 2026-05-05 12:02 | 55.62415 | 50.93660 | 35900 ft | 417 kts | 248° |
| 2026-05-05 12:03 | 55.60135 | 50.84221 | 35899 ft | 417 kts | 248° |
| 2026-05-05 12:03 | 55.57858 | 50.74787 | 35884 ft | 417 kts | 248° |
| 2026-05-05 12:04 | 55.55580 | 50.65351 | 35890 ft | 418 kts | 248° |
| 2026-05-05 12:04 | 55.53294 | 50.55922 | 35892 ft | 418 kts | 248° |
| 2026-05-05 12:05 | 55.51010 | 50.46562 | 35897 ft | 418 kts | 248° |
| 2026-05-05 12:05 | 55.48703 | 50.37143 | 35900 ft | 418 kts | 248° |
| 2026-05-05 12:06 | 55.46387 | 50.27738 | 35905 ft | 419 kts | 248° |
| 2026-05-05 12:06 | 55.44058 | 50.18328 | 35901 ft | 419 kts | 248° |
| 2026-05-05 12:07 | 55.41723 | 50.08950 | 35901 ft | 418 kts | 248° |
| 2026-05-05 12:07 | 55.39602 | 49.99446 | 35902 ft | 416 kts | 257° |
| 2026-05-05 12:08 | 55.39140 | 49.89382 | 35898 ft | 414 kts | 275° |
| 2026-05-05 12:08 | 55.39665 | 49.79303 | 35892 ft | 414 kts | 275° |
| 2026-05-05 12:09 | 55.40156 | 49.69197 | 35894 ft | 415 kts | 275° |
| 2026-05-05 12:09 | 55.40638 | 49.59076 | 35880 ft | 415 kts | 275° |
| 2026-05-05 12:10 | 55.41122 | 49.48948 | 35884 ft | 415 kts | 275° |
| 2026-05-05 12:10 | 55.41594 | 49.38806 | 35887 ft | 415 kts | 275° |
| 2026-05-05 12:11 | 55.42062 | 49.28677 | 35883 ft | 415 kts | 275° |
| 2026-05-05 12:11 | 55.42522 | 49.18546 | 35887 ft | 415 kts | 275° |
| 2026-05-05 12:12 | 55.42968 | 49.08413 | 35888 ft | 415 kts | 274° |
| 2026-05-05 12:12 | 55.43403 | 48.98280 | 35898 ft | 415 kts | 274° |
| 2026-05-05 12:13 | 55.43834 | 48.88151 | 35899 ft | 414 kts | 274° |
| 2026-05-05 12:13 | 55.44253 | 48.78025 | 35889 ft | 414 kts | 274° |
| 2026-05-05 12:14 | 55.44669 | 48.67900 | 35880 ft | 414 kts | 274° |
| 2026-05-05 12:14 | 55.45073 | 48.57788 | 35884 ft | 414 kts | 274° |
| 2026-05-05 12:15 | 55.46236 | 48.47955 | 35880 ft | 414 kts | 287° |
| 2026-05-05 12:15 | 55.47928 | 48.38268 | 35879 ft | 414 kts | 286° |
| 2026-05-05 12:16 | 55.49610 | 48.28557 | 35888 ft | 414 kts | 286° |
| 2026-05-05 12:16 | 55.51291 | 48.18848 | 35886 ft | 413 kts | 286° |
| 2026-05-05 12:17 | 55.52955 | 48.09134 | 35890 ft | 413 kts | 286° |
| 2026-05-05 12:17 | 55.54599 | 47.99425 | 35884 ft | 413 kts | 286° |
| 2026-05-05 12:18 | 55.56244 | 47.89715 | 35878 ft | 412 kts | 286° |
| 2026-05-05 12:18 | 55.57882 | 47.80014 | 35865 ft | 412 kts | 286° |
| 2026-05-05 12:19 | 55.59514 | 47.70285 | 35873 ft | 413 kts | 285° |
| 2026-05-05 12:19 | 55.61138 | 47.60563 | 35871 ft | 412 kts | 285° |
| 2026-05-05 12:20 | 55.62746 | 47.50831 | 35871 ft | 412 kts | 285° |
| 2026-05-05 12:20 | 55.64347 | 47.41110 | 35866 ft | 411 kts | 285° |
| 2026-05-05 12:21 | 55.65947 | 47.31389 | 35867 ft | 411 kts | 285° |
| 2026-05-05 12:21 | 55.67530 | 47.21650 | 35861 ft | 411 kts | 285° |
| 2026-05-05 12:22 | 55.69090 | 47.11973 | 35863 ft | 411 kts | 285° |
| 2026-05-05 12:22 | 55.70665 | 47.02240 | 35879 ft | 411 kts | 285° |
| 2026-05-05 12:23 | 55.72234 | 46.92511 | 35875 ft | 410 kts | 285° |
| 2026-05-05 12:23 | 55.73789 | 46.82770 | 35874 ft | 410 kts | 284° |
| 2026-05-05 12:24 | 55.75332 | 46.73042 | 35869 ft | 410 kts | 284° |
| 2026-05-05 12:24 | 55.76870 | 46.63305 | 35855 ft | 410 kts | 284° |
| 2026-05-05 12:25 | 55.78393 | 46.53552 | 35856 ft | 410 kts | 284° |
| 2026-05-05 12:25 | 55.79530 | 46.43657 | 35872 ft | 408 kts | 272° |
| 2026-05-05 12:26 | 55.79856 | 46.33585 | 35870 ft | 408 kts | 273° |
| 2026-05-05 12:26 | 55.80195 | 46.23528 | 35871 ft | 408 kts | 273° |
| 2026-05-05 12:27 | 55.80524 | 46.13519 | 35866 ft | 407 kts | 272° |
| 2026-05-05 12:27 | 55.80835 | 46.03458 | 35865 ft | 407 kts | 272° |
| 2026-05-05 12:28 | 55.81134 | 45.93400 | 35861 ft | 407 kts | 272° |
| 2026-05-05 12:28 | 55.81424 | 45.83338 | 35856 ft | 407 kts | 272° |
| 2026-05-05 12:29 | 55.81710 | 45.73284 | 35871 ft | 407 kts | 272° |
| 2026-05-05 12:29 | 55.81995 | 45.63247 | 35873 ft | 406 kts | 272° |
| 2026-05-05 12:30 | 55.82259 | 45.53217 | 35861 ft | 406 kts | 272° |
| 2026-05-05 12:30 | 55.82501 | 45.43815 | 35861 ft | 406 kts | 272° |
| 2026-05-05 12:31 | 55.82759 | 45.33786 | 35858 ft | 406 kts | 272° |
| 2026-05-05 12:31 | 55.83003 | 45.23777 | 35852 ft | 405 kts | 272° |
| 2026-05-05 12:32 | 55.83236 | 45.13756 | 35847 ft | 405 kts | 272° |
| 2026-05-05 12:32 | 55.83462 | 45.03754 | 35847 ft | 405 kts | 271° |
| 2026-05-05 12:33 | 55.83679 | 44.93744 | 35842 ft | 404 kts | 271° |
| 2026-05-05 12:33 | 55.83896 | 44.83764 | 35840 ft | 404 kts | 271° |
| 2026-05-05 12:34 | 55.84111 | 44.73778 | 35840 ft | 404 kts | 271° |
| 2026-05-05 12:34 | 55.84318 | 44.63794 | 35830 ft | 403 kts | 271° |
| 2026-05-05 12:35 | 55.84515 | 44.53826 | 35827 ft | 403 kts | 271° |
| 2026-05-05 12:35 | 55.84695 | 44.43853 | 35824 ft | 403 kts | 271° |
| 2026-05-05 12:36 | 55.84871 | 44.33953 | 35815 ft | 403 kts | 271° |
| 2026-05-05 12:36 | 55.85041 | 44.23994 | 35842 ft | 403 kts | 271° |
| 2026-05-05 12:37 | 55.85203 | 44.14034 | 35827 ft | 402 kts | 271° |
| 2026-05-05 12:37 | 55.85352 | 44.04077 | 35819 ft | 402 kts | 270° |
| 2026-05-05 12:38 | 55.85497 | 43.94129 | 35819 ft | 402 kts | 270° |
| 2026-05-05 12:38 | 55.85635 | 43.84196 | 35817 ft | 401 kts | 270° |
| 2026-05-05 12:39 | 55.85770 | 43.74259 | 35806 ft | 401 kts | 270° |
| 2026-05-05 12:39 | 55.85890 | 43.64321 | 35813 ft | 401 kts | 270° |
| 2026-05-05 12:40 | 55.85996 | 43.54443 | 35814 ft | 402 kts | 270° |
| 2026-05-05 12:40 | 55.86106 | 43.44507 | 35823 ft | 401 kts | 270° |
| 2026-05-05 12:41 | 55.86215 | 43.34593 | 35826 ft | 400 kts | 270° |
| 2026-05-05 12:41 | 55.86308 | 43.24698 | 35814 ft | 400 kts | 270° |
| 2026-05-05 12:42 | 55.86377 | 43.16468 | 35813 ft | 400 kts | 270° |
| 2026-05-05 12:42 | 55.86455 | 43.06571 | 35813 ft | 400 kts | 270° |
| 2026-05-05 12:43 | 55.86527 | 42.96662 | 35814 ft | 400 kts | 270° |
| 2026-05-05 12:43 | 55.86594 | 42.86763 | 35812 ft | 400 kts | 270° |
| 2026-05-05 12:44 | 55.86658 | 42.76869 | 35810 ft | 400 kts | 270° |
| 2026-05-05 12:44 | 55.86707 | 42.66965 | 35810 ft | 400 kts | 269° |
| 2026-05-05 12:45 | 55.86745 | 42.57064 | 35811 ft | 400 kts | 269° |
| 2026-05-05 12:45 | 55.86772 | 42.47165 | 35798 ft | 400 kts | 269° |
| 2026-05-05 12:46 | 55.86800 | 42.37258 | 35796 ft | 400 kts | 269° |
| 2026-05-05 12:46 | 55.86824 | 42.27340 | 35798 ft | 400 kts | 269° |
| 2026-05-05 12:47 | 55.86831 | 42.17415 | 35803 ft | 401 kts | 269° |
| 2026-05-05 12:47 | 55.86833 | 42.07499 | 35804 ft | 401 kts | 269° |
| 2026-05-05 12:48 | 55.86825 | 41.97567 | 35805 ft | 401 kts | 269° |
| 2026-05-05 12:48 | 55.86811 | 41.87645 | 35829 ft | 401 kts | 269° |
| 2026-05-05 12:49 | 55.86779 | 41.77797 | 35826 ft | 400 kts | 268° |
| 2026-05-05 12:49 | 55.86570 | 41.67910 | 35825 ft | 399 kts | 266° |
| 2026-05-05 12:50 | 55.86223 | 41.58051 | 35819 ft | 399 kts | 265° |
| 2026-05-05 12:50 | 55.85879 | 41.48188 | 35816 ft | 399 kts | 266° |
| 2026-05-05 12:51 | 55.85562 | 41.38316 | 35818 ft | 400 kts | 266° |
| 2026-05-05 12:51 | 55.85252 | 41.28424 | 35818 ft | 399 kts | 266° |
| 2026-05-05 12:52 | 55.84939 | 41.18688 | 35814 ft | 400 kts | 266° |
| 2026-05-05 12:52 | 55.84606 | 41.08882 | 35838 ft | 399 kts | 266° |
| 2026-05-05 12:53 | 55.84260 | 40.99029 | 35843 ft | 398 kts | 265° |
| 2026-05-05 12:53 | 55.83910 | 40.89191 | 35842 ft | 398 kts | 265° |
| 2026-05-05 12:54 | 55.83379 | 40.74451 | 35823 ft | 398 kts | 265° |
| 2026-05-05 12:55 | 55.83006 | 40.64579 | 35810 ft | 401 kts | 265° |
| 2026-05-05 12:55 | 55.82615 | 40.54650 | 35808 ft | 403 kts | 265° |
| 2026-05-05 12:56 | 55.82211 | 40.44702 | 35812 ft | 404 kts | 265° |
| 2026-05-05 12:56 | 55.82006 | 40.39714 | 35426 ft | 407 kts | 265° |
| 2026-05-05 12:56 | 55.81796 | 40.34656 | 34545 ft | 411 kts | 265° |
| 2026-05-05 12:56 | 55.81587 | 40.29611 | 33943 ft | 408 kts | 265° |
| 2026-05-05 12:57 | 55.81381 | 40.24639 | 33187 ft | 399 kts | 265° |
| 2026-05-05 12:57 | 55.81175 | 40.19752 | 32149 ft | 393 kts | 265° |
| 2026-05-05 12:57 | 55.80966 | 40.14930 | 31161 ft | 388 kts | 265° |
| 2026-05-05 12:57 | 55.80758 | 40.10183 | 30227 ft | 383 kts | 265° |
| 2026-05-05 12:58 | 55.80550 | 40.05489 | 29197 ft | 378 kts | 265° |
| 2026-05-05 12:58 | 55.80342 | 40.00848 | 28160 ft | 374 kts | 265° |
| 2026-05-05 12:58 | 55.80136 | 39.96264 | 27225 ft | 369 kts | 265° |
| 2026-05-05 12:58 | 55.79936 | 39.91888 | 26846 ft | 354 kts | 265° |
| 2026-05-05 12:59 | 55.79738 | 39.87558 | 26435 ft | 350 kts | 265° |
| 2026-05-05 12:59 | 55.79543 | 39.83268 | 26030 ft | 346 kts | 265° |
| 2026-05-05 12:59 | 55.79341 | 39.79041 | 25681 ft | 340 kts | 264° |
| 2026-05-05 13:00 | 55.78816 | 39.70732 | 25335 ft | 337 kts | 263° |
| 2026-05-05 13:00 | 55.78526 | 39.66599 | 25145 ft | 336 kts | 263° |
| 2026-05-05 13:01 | 55.77669 | 39.54294 | 24548 ft | 332 kts | 263° |
| 2026-05-05 13:01 | 55.77392 | 39.50230 | 24341 ft | 330 kts | 263° |
| 2026-05-05 13:01 | 55.77117 | 39.46184 | 24145 ft | 329 kts | 263° |
| 2026-05-05 13:01 | 55.76844 | 39.42150 | 23952 ft | 328 kts | 263° |
| 2026-05-05 13:02 | 55.76571 | 39.38135 | 23783 ft | 327 kts | 262° |
| 2026-05-05 13:02 | 55.76294 | 39.34114 | 23717 ft | 327 kts | 262° |
| 2026-05-05 13:02 | 55.76013 | 39.30104 | 23624 ft | 327 kts | 262° |
| 2026-05-05 13:02 | 55.75729 | 39.26082 | 23550 ft | 329 kts | 262° |
| 2026-05-05 13:03 | 55.75442 | 39.22060 | 23463 ft | 329 kts | 262° |
| 2026-05-05 13:03 | 55.75154 | 39.18030 | 23367 ft | 329 kts | 262° |
| 2026-05-05 13:03 | 55.74868 | 39.14010 | 23291 ft | 328 kts | 262° |
| 2026-05-05 13:03 | 55.74584 | 39.10036 | 23201 ft | 328 kts | 262° |
| 2026-05-05 13:04 | 55.74295 | 39.06025 | 23122 ft | 328 kts | 262° |
| 2026-05-05 13:04 | 55.74004 | 39.02015 | 23034 ft | 327 kts | 262° |
| 2026-05-05 13:04 | 55.73712 | 38.98018 | 22943 ft | 327 kts | 262° |
| 2026-05-05 13:04 | 55.73450 | 38.94023 | 22856 ft | 326 kts | 266° |
| 2026-05-05 13:05 | 55.73509 | 38.89984 | 22570 ft | 328 kts | 274° |
| 2026-05-05 13:05 | 55.73717 | 38.85977 | 22217 ft | 325 kts | 274° |
| 2026-05-05 13:05 | 55.73922 | 38.82001 | 21895 ft | 322 kts | 274° |
| 2026-05-05 13:05 | 55.74122 | 38.78055 | 21593 ft | 320 kts | 273° |
| 2026-05-05 13:06 | 55.74316 | 38.74142 | 21250 ft | 316 kts | 273° |
| 2026-05-05 13:06 | 55.74503 | 38.70279 | 20932 ft | 313 kts | 273° |
| 2026-05-05 13:06 | 55.74688 | 38.66439 | 20615 ft | 311 kts | 273° |
| 2026-05-05 13:06 | 55.74874 | 38.62628 | 20300 ft | 309 kts | 273° |
| 2026-05-05 13:07 | 55.75220 | 38.58866 | 19983 ft | 310 kts | 283° |
| 2026-05-05 13:07 | 55.75988 | 38.55291 | 19832 ft | 312 kts | 294° |
| 2026-05-05 13:07 | 55.77145 | 38.52004 | 19853 ft | 316 kts | 301° |
| 2026-05-05 13:07 | 55.78414 | 38.48820 | 19854 ft | 316 kts | 301° |
| 2026-05-05 13:08 | 55.79676 | 38.45630 | 19850 ft | 316 kts | 301° |
| 2026-05-05 13:08 | 55.80939 | 38.42431 | 19851 ft | 316 kts | 301° |
| 2026-05-05 13:08 | 55.82198 | 38.39242 | 19853 ft | 316 kts | 301° |
| 2026-05-05 13:08 | 55.83476 | 38.36060 | 19693 ft | 317 kts | 302° |
| 2026-05-05 13:09 | 55.84802 | 38.32944 | 19365 ft | 314 kts | 303° |
| 2026-05-05 13:09 | 55.86147 | 38.29887 | 19071 ft | 312 kts | 304° |
| 2026-05-05 13:09 | 55.87489 | 38.26862 | 18789 ft | 310 kts | 304° |
| 2026-05-05 13:09 | 55.88822 | 38.23847 | 18482 ft | 309 kts | 303° |
| 2026-05-05 13:10 | 55.90125 | 38.20875 | 18192 ft | 307 kts | 303° |
| 2026-05-05 13:10 | 55.91430 | 38.17874 | 17877 ft | 306 kts | 303° |
| 2026-05-05 13:10 | 55.92726 | 38.14876 | 17578 ft | 304 kts | 303° |
| 2026-05-05 13:10 | 55.94013 | 38.11887 | 17286 ft | 303 kts | 303° |
| 2026-05-05 13:11 | 55.95290 | 38.08915 | 17006 ft | 302 kts | 303° |
| 2026-05-05 13:11 | 55.96563 | 38.05947 | 16721 ft | 300 kts | 303° |
| 2026-05-05 13:11 | 55.97830 | 38.02993 | 16443 ft | 299 kts | 303° |
| 2026-05-05 13:11 | 55.99093 | 38.00050 | 16144 ft | 298 kts | 303° |
| 2026-05-05 13:12 | 56.00187 | 37.96958 | 15867 ft | 292 kts | 291° |
| 2026-05-05 13:12 | 56.00827 | 37.93542 | 15678 ft | 287 kts | 278° |
| 2026-05-05 13:12 | 56.01192 | 37.90030 | 15497 ft | 287 kts | 278° |
| 2026-05-05 13:12 | 56.01556 | 37.86532 | 15326 ft | 286 kts | 278° |
| 2026-05-05 13:13 | 56.01925 | 37.83034 | 15143 ft | 286 kts | 279° |
| 2026-05-05 13:13 | 56.02595 | 37.79688 | 14973 ft | 288 kts | 295° |
| 2026-05-05 13:13 | 56.03803 | 37.76805 | 14788 ft | 293 kts | 311° |
| 2026-05-05 13:13 | 56.05468 | 37.74647 | 14598 ft | 301 kts | 327° |
| 2026-05-05 13:14 | 56.07352 | 37.73072 | 14411 ft | 302 kts | 329° |
| 2026-05-05 13:14 | 56.09258 | 37.71494 | 14221 ft | 301 kts | 329° |
| 2026-05-05 13:14 | 56.11156 | 37.69921 | 14038 ft | 301 kts | 329° |
| 2026-05-05 13:14 | 56.13041 | 37.68323 | 13832 ft | 298 kts | 325° |
| 2026-05-05 13:15 | 56.14828 | 37.66448 | 13448 ft | 298 kts | 323° |
| 2026-05-05 13:15 | 56.16609 | 37.64560 | 13063 ft | 296 kts | 323° |
| 2026-05-05 13:15 | 56.18384 | 37.62679 | 12696 ft | 294 kts | 323° |
| 2026-05-05 13:15 | 56.20141 | 37.60812 | 12331 ft | 292 kts | 323° |
| 2026-05-05 13:16 | 56.21885 | 37.58955 | 11965 ft | 290 kts | 323° |
| 2026-05-05 13:16 | 56.23597 | 37.57129 | 11607 ft | 289 kts | 323° |
| 2026-05-05 13:16 | 56.25340 | 37.55266 | 11245 ft | 287 kts | 323° |
| 2026-05-05 13:16 | 56.27029 | 37.53458 | 10895 ft | 285 kts | 323° |
| 2026-05-05 13:17 | 56.28705 | 37.51584 | 10545 ft | 280 kts | 316° |
| 2026-05-05 13:17 | 56.29921 | 37.48983 | 10202 ft | 267 kts | 292° |
| 2026-05-05 13:17 | 56.30403 | 37.45842 | 9872 ft | 258 kts | 271° |
| 2026-05-05 13:17 | 56.30151 | 37.42684 | 9500 ft | 256 kts | 250° |
| 2026-05-05 13:18 | 56.29268 | 37.39898 | 9143 ft | 257 kts | 238° |
| 2026-05-05 13:18 | 56.28262 | 37.37238 | 8795 ft | 256 kts | 238° |
| 2026-05-05 13:18 | 56.27258 | 37.34587 | 8459 ft | 255 kts | 238° |
| 2026-05-05 13:18 | 56.26097 | 37.32167 | 8114 ft | 261 kts | 221° |
| 2026-05-05 13:19 | 56.24467 | 37.30713 | 7848 ft | 266 kts | 199° |
| 2026-05-05 13:19 | 56.22589 | 37.30546 | 7559 ft | 277 kts | 175° |
| 2026-05-05 13:19 | 56.20707 | 37.31404 | 7228 ft | 278 kts | 170° |
| 2026-05-05 13:19 | 56.18893 | 37.32338 | 7102 ft | 266 kts | 166° |
| 2026-05-05 13:20 | 56.17360 | 37.34141 | 6966 ft | 268 kts | 133° |
| 2026-05-05 13:20 | 56.16655 | 37.37203 | 6760 ft | 271 kts | 94° |
| 2026-05-05 13:20 | 56.16897 | 37.40538 | 6518 ft | 272 kts | 76° |
| 2026-05-05 13:20 | 56.17367 | 37.43792 | 6245 ft | 273 kts | 73° |
| 2026-05-05 13:21 | 56.17888 | 37.47060 | 5953 ft | 272 kts | 73° |
| 2026-05-05 13:21 | 56.18421 | 37.50349 | 5654 ft | 270 kts | 73° |
| 2026-05-05 13:21 | 56.18924 | 37.53531 | 5389 ft | 267 kts | 75° |
| 2026-05-05 13:21 | 56.19116 | 37.56803 | 5120 ft | 263 kts | 97° |
| 2026-05-05 13:22 | 56.18669 | 37.59906 | 4904 ft | 255 kts | 120° |
| 2026-05-05 13:22 | 56.17682 | 37.62496 | 4803 ft | 249 kts | 139° |
| 2026-05-05 13:22 | 56.16464 | 37.64714 | 4670 ft | 249 kts | 140° |
| 2026-05-05 13:22 | 56.15254 | 37.66931 | 4557 ft | 248 kts | 139° |
| 2026-05-05 13:23 | 56.14050 | 37.69149 | 4427 ft | 248 kts | 139° |
| 2026-05-05 13:23 | 56.12851 | 37.71360 | 4306 ft | 243 kts | 140° |
| 2026-05-05 13:23 | 56.11698 | 37.73483 | 4200 ft | 234 kts | 140° |
| 2026-05-05 13:23 | 56.10556 | 37.75535 | 4093 ft | 231 kts | 145° |
| 2026-05-05 13:24 | 56.09182 | 37.76838 | 3991 ft | 219 kts | 173° |
| 2026-05-05 13:24 | 56.07716 | 37.76908 | 3828 ft | 205 kts | 198° |
| 2026-05-05 13:24 | 56.06388 | 37.76177 | 3657 ft | 196 kts | 202° |
| 2026-05-05 13:24 | 56.05111 | 37.75445 | 3500 ft | 190 kts | 202° |
| 2026-05-05 13:25 | 56.03855 | 37.74727 | 3349 ft | 189 kts | 202° |
| 2026-05-05 13:25 | 56.02684 | 37.73731 | 3195 ft | 185 kts | 221° |
| 2026-05-05 13:25 | 56.01823 | 37.72105 | 3050 ft | 178 kts | 241° |
| 2026-05-05 13:25 | 56.01361 | 37.70133 | 2930 ft | 167 kts | 255° |
| 2026-05-05 13:26 | 56.01081 | 37.68205 | 2764 ft | 152 kts | 255° |
| 2026-05-05 13:26 | 56.00826 | 37.66462 | 2654 ft | 140 kts | 255° |
| 2026-05-05 13:26 | 56.00583 | 37.64799 | 2562 ft | 138 kts | 255° |
| 2026-05-05 13:26 | 56.00341 | 37.63156 | 2449 ft | 134 kts | 255° |
| 2026-05-05 13:27 | 56.00107 | 37.61560 | 2344 ft | 136 kts | 255° |
| 2026-05-05 13:27 | 55.99869 | 37.59945 | 2291 ft | 134 kts | 255° |
| 2026-05-05 13:27 | 55.99633 | 37.58340 | 2172 ft | 134 kts | 255° |
| 2026-05-05 13:27 | 55.99396 | 37.56734 | 2025 ft | 133 kts | 255° |
| 2026-05-05 13:28 | 55.99160 | 37.55131 | 1856 ft | 133 kts | 255° |
| 2026-05-05 13:28 | 55.98923 | 37.53527 | 1687 ft | 134 kts | 254° |
| 2026-05-05 13:28 | 55.98687 | 37.51928 | 1510 ft | 133 kts | 255° |
| 2026-05-05 13:28 | 55.98448 | 37.50350 | 1362 ft | 131 kts | 255° |
| 2026-05-05 13:29 | 55.98211 | 37.48762 | 1182 ft | 133 kts | 258° |
| 2026-05-05 13:29 | 55.97971 | 37.47145 | 1020 ft | 133 kts | 253° |
| 2026-05-05 13:29 | 55.97737 | 37.45544 | 838 ft | 133 kts | 256° |
| 2026-05-05 13:29 | 55.97513 | 37.43930 | 654 ft | 132 kts | 254° |
| 2026-05-05 13:30 | 55.97364 | 37.42960 | 643 ft | 112 kts | 253° |
| 2026-05-05 13:30 | 55.97164 | 37.41691 | 640 ft | 46 kts | 256° |
| 2026-05-05 13:30 | 55.97133 | 37.41454 | 641 ft | 21 kts | 263° |
| 2026-05-05 13:30 | 55.97205 | 37.41320 | 645 ft | 8 kts | 348° |
| 2026-05-05 13:31 | 55.97259 | 37.41301 | 642 ft | 7 kts | 348° |
| 2026-05-05 13:31 | 55.97315 | 37.41277 | 640 ft | 10 kts | 345° |
| 2026-05-05 13:31 | 55.97398 | 37.41239 | 640 ft | 15 kts | 346° |
| 2026-05-05 13:31 | 55.97509 | 37.41179 | 639 ft | 17 kts | 351° |
| 2026-05-05 13:32 | 55.97615 | 37.41162 | 643 ft | 13 kts | 34° |
| 2026-05-05 13:32 | 55.97650 | 37.41335 | 645 ft | 17 kts | 75° |
| 2026-05-05 13:32 | 55.97707 | 37.41465 | 646 ft | 13 kts | 357° |
| 2026-05-05 13:32 | 55.97814 | 37.41419 | 640 ft | 18 kts | 343° |
| 2026-05-05 13:33 | 55.97910 | 37.41363 | 639 ft | 9 kts | 331° |
| 2026-05-05 13:33 | 55.97909 | 37.41279 | 639 ft | 8 kts | 251° |
| 2026-05-05 13:33 | 55.97904 | 37.41241 | 645 ft | 0 kts | 258° |
| 2026-05-05 13:34 | 55.97928 | 37.41217 | 640 ft | 0 kts | 255° |